createdAt,value
2022-08-18T00:00:25.924Z,38.3
2022-08-18T00:02:30.289Z,39.2
2022-08-18T00:04:35.376Z,34.5
2022-08-18T00:06:28.956Z,42.1
2022-08-18T00:08:27.366Z,37.4
2022-08-18T00:10:27.742Z,42.1
2022-08-18T00:12:31.067Z,36.5
2022-08-18T00:14:28.500Z,40.3
2022-08-18T00:16:29.013Z,40.3
2022-08-18T00:18:29.180Z,39
2022-08-18T00:20:29.554Z,41.6
2022-08-18T00:22:29.867Z,41.5
2022-08-18T00:24:30.252Z,41.1
2022-08-18T00:26:36.269Z,39.3
2022-08-18T00:28:30.849Z,43.6
2022-08-18T00:30:32.196Z,46.8
2022-08-18T00:32:34.558Z,43.6
2022-08-18T00:34:31.900Z,41.7
2022-08-18T00:36:33.186Z,42.6
2022-08-18T00:38:32.594Z,42.9
2022-08-18T00:40:39.546Z,44.3
2022-08-18T00:42:39.156Z,43.8
2022-08-18T00:44:33.606Z,46
2022-08-18T00:46:37.075Z,48.7
2022-08-18T00:48:34.529Z,47.6
2022-08-18T00:50:42.540Z,46.6
2022-08-18T00:52:36.201Z,47.6
2022-08-18T00:54:37.370Z,39.7
2022-08-18T00:56:41.097Z,49
2022-08-18T00:58:45.762Z,48.5
2022-08-18T01:00:37.436Z,46.2
2022-08-18T01:02:42.052Z,47.4
2022-08-18T01:04:42.173Z,47.9
2022-08-18T01:06:41.726Z,46.1
2022-08-18T01:08:37.914Z,45.9
2022-08-18T01:10:38.138Z,48.3
2022-08-18T01:12:45.445Z,48.3
2022-08-18T01:14:38.954Z,47.8
2022-08-18T01:16:39.013Z,45.5
2022-08-18T01:18:39.532Z,44.9
2022-08-18T01:20:47.188Z,48.1
2022-08-18T01:22:49.320Z,46.6
2022-08-18T01:24:40.783Z,47.2
2022-08-18T01:26:44.185Z,46.8
2022-08-18T01:28:43.425Z,47.9
2022-08-18T01:30:46.399Z,43.7
2022-08-18T01:32:42.226Z,48.3
2022-08-18T01:34:42.209Z,47.2
2022-08-18T01:36:43.080Z,49.5
2022-08-18T01:38:42.906Z,47.6
2022-08-18T01:41:17.610Z,48.5
2022-08-18T01:42:43.358Z,44.8
2022-08-18T01:44:44.534Z,46.8
2022-08-18T01:46:44.091Z,46.8
2022-08-18T01:48:44.267Z,44.1
2022-08-18T01:50:44.687Z,46
2022-08-18T01:52:45.096Z,47.5
2022-08-18T01:54:45.738Z,44.9
2022-08-18T01:56:45.860Z,45.6
2022-08-18T01:58:46.221Z,52.4
2022-08-18T02:00:46.284Z,49
2022-08-18T02:02:47.782Z,49.9
2022-08-18T02:04:47.490Z,46.1
2022-08-18T02:06:47.907Z,45.9
2022-08-18T02:08:53.560Z,47.8
2022-08-18T02:10:48.005Z,51.6
2022-08-18T02:12:48.267Z,47.4
2022-08-18T02:14:48.567Z,46
2022-08-18T02:16:48.892Z,47.6
2022-08-18T02:18:49.343Z,48.7
2022-08-18T02:20:49.808Z,47.6
2022-08-18T02:22:50.605Z,48.4
2022-08-18T02:24:50.276Z,52.4
2022-08-18T02:26:50.523Z,49.2
2022-08-18T02:28:51.296Z,51.3
2022-08-18T02:30:51.216Z,51.5
2022-08-18T02:32:52.656Z,50.3
2022-08-18T02:34:52.065Z,50.4
2022-08-18T02:36:52.748Z,52.9
2022-08-18T02:38:56.690Z,49.2
2022-08-18T02:40:55.117Z,55.8
2022-08-18T02:42:53.544Z,56.2
2022-08-18T02:44:53.593Z,54
2022-08-18T02:46:54.489Z,54.7
2022-08-18T02:48:54.295Z,60.7
2022-08-18T02:51:00.018Z,73.2
2022-08-18T02:52:54.917Z,85.4
2022-08-18T02:54:55.225Z,72.8
2022-08-18T02:56:55.537Z,57.1
2022-08-18T02:58:58.558Z,66
2022-08-18T03:00:56.237Z,51
2022-08-18T03:02:56.705Z,60.5
2022-08-18T03:04:57.000Z,54.6
2022-08-18T03:06:59.286Z,51.1
2022-08-18T03:08:57.560Z,54.2
2022-08-18T03:10:58.190Z,61.4
2022-08-18T03:12:58.293Z,50.8
2022-08-18T03:14:58.622Z,54.5
2022-08-18T03:16:59.385Z,50
2022-08-18T03:19:01.196Z,51.6
2022-08-18T03:21:04.813Z,53.5
2022-08-18T03:23:05.831Z,47.8
2022-08-18T03:25:00.342Z,58.1
2022-08-18T03:27:04.755Z,50.9
2022-08-18T03:29:01.407Z,50.7
2022-08-18T03:31:01.481Z,52.1
2022-08-18T03:33:01.799Z,54.1
2022-08-18T03:35:02.235Z,50.1
2022-08-18T03:37:02.612Z,52.4
2022-08-18T03:39:04.695Z,48.3
2022-08-18T03:41:03.378Z,54.3
2022-08-18T03:43:04.848Z,50.8
2022-08-18T03:45:13.237Z,50.5
2022-08-18T03:47:07.437Z,49.4
2022-08-18T03:49:04.739Z,50.8
2022-08-18T03:51:07.455Z,54
2022-08-18T03:53:05.526Z,48.8
2022-08-18T03:55:06.526Z,53
2022-08-18T03:57:08.712Z,53.2
2022-08-18T03:59:11.025Z,56.3
2022-08-18T04:01:07.176Z,54.2
2022-08-18T04:03:07.519Z,53.5
2022-08-18T04:05:08.724Z,77.6
2022-08-18T04:07:11.125Z,323.2
2022-08-18T04:09:12.564Z,51.1
2022-08-18T04:11:09.669Z,56
2022-08-18T04:13:09.866Z,47.8
2022-08-18T04:15:10.883Z,49.2
2022-08-18T04:17:10.756Z,48.4
2022-08-18T04:19:11.925Z,52.1
2022-08-18T04:21:12.245Z,48.2
2022-08-18T04:23:12.302Z,60.3
2022-08-18T04:25:12.933Z,75.5
2022-08-18T04:27:13.497Z,54.3
2022-08-18T04:29:16.672Z,59.6
2022-08-18T04:31:15.050Z,120.5
2022-08-18T04:33:14.996Z,92.6
2022-08-18T04:35:15.685Z,55.7
2022-08-18T04:37:16.889Z,52.8
2022-08-18T04:39:16.656Z,60.9
2022-08-18T04:41:17.549Z,59
2022-08-18T04:43:17.739Z,55.7
2022-08-18T04:45:18.368Z,54.1
2022-08-18T04:47:18.983Z,49
2022-08-18T04:49:22.078Z,56.2
2022-08-18T04:52:34.275Z,53
2022-08-18T04:53:20.627Z,66.7
2022-08-18T04:55:21.368Z,56
2022-08-18T04:57:22.040Z,47.2
2022-08-18T04:59:22.445Z,44.7
2022-08-18T05:01:25.486Z,36.4
2022-08-18T05:03:23.976Z,37.1
2022-08-18T05:05:24.165Z,40.7
2022-08-18T05:07:24.806Z,42.4
2022-08-18T05:09:26.127Z,36.9
2022-08-18T05:11:29.106Z,36.8
2022-08-18T05:13:26.638Z,37.1
2022-08-18T05:15:27.347Z,36.4
2022-08-18T05:17:27.974Z,35.6
2022-08-18T05:19:29.046Z,34.2
2022-08-18T05:21:29.262Z,33
2022-08-18T05:23:30.192Z,32.4
2022-08-18T05:25:30.694Z,30
2022-08-18T05:27:32.085Z,34.4
2022-08-18T05:29:31.801Z,35.7
2022-08-18T05:31:32.647Z,46.7
2022-08-18T05:33:33.096Z,39.8
2022-08-18T05:35:42.125Z,43.5
2022-08-18T05:37:43.236Z,49.1
2022-08-18T05:39:39.588Z,32.2
2022-08-18T05:41:39.257Z,33.1
2022-08-18T05:43:51.115Z,35.6
2022-08-18T05:45:39.005Z,48.6
2022-08-18T05:47:38.271Z,45.4
2022-08-18T05:49:39.230Z,40.7
2022-08-18T05:51:42.957Z,43.7
2022-08-18T05:53:42.005Z,46
2022-08-18T05:55:48.086Z,38
2022-08-18T07:15:24.006Z,25.2
2022-08-18T07:17:22.815Z,31
2022-08-18T07:19:19.382Z,25.1
2022-08-18T07:21:26.704Z,24.4
2022-08-18T07:23:25.163Z,25.3
2022-08-18T07:25:23.939Z,37.5
2022-08-18T07:27:21.809Z,33.4
2022-08-18T07:29:19.957Z,28.8
2022-08-18T07:31:33.469Z,33.5
2022-08-18T07:33:25.275Z,28.5
2022-08-18T07:35:27.263Z,25.6
2022-08-18T07:37:29.151Z,28.7
2022-08-18T07:39:29.532Z,28.7
2022-08-18T07:41:31.071Z,19.7
2022-08-18T07:43:33.207Z,23
2022-08-18T07:45:31.388Z,19.8
2022-08-18T07:47:33.455Z,25
2022-08-18T07:49:31.172Z,41.6
2022-08-18T07:51:39.379Z,28.3
2022-08-18T07:53:39.482Z,27.9
2022-08-18T07:55:32.591Z,20.7
2022-08-18T07:57:42.016Z,28.6
2022-08-18T07:59:38.580Z,26.3
2022-08-18T08:01:38.730Z,27.6
2022-08-18T08:03:46.115Z,30.7
2022-08-18T08:05:42.174Z,88.3
2022-08-18T08:07:39.612Z,29.2
2022-08-18T08:09:51.210Z,21.8
2022-08-18T08:11:44.531Z,27.2
2022-08-18T08:14:01.427Z,22.5
2022-08-18T08:15:45.708Z,25.8
2022-08-18T08:17:42.160Z,23.9
2022-08-18T08:20:01.222Z,23.9
2022-08-18T08:21:43.452Z,31.9
2022-08-18T08:23:51.325Z,24.2
2022-08-18T08:25:48.028Z,30.3
2022-08-18T08:27:53.174Z,23.3
2022-08-18T08:29:48.243Z,19.9
2022-08-18T08:31:48.265Z,22
2022-08-18T08:33:44.012Z,26.7
2022-08-18T08:35:50.401Z,19.9
2022-08-18T08:37:46.439Z,26.9
2022-08-18T08:39:49.080Z,21.3
2022-08-18T08:41:49.397Z,21.4
2022-08-18T08:43:48.519Z,13.9
2022-08-18T08:45:47.345Z,19.4
2022-08-18T08:47:58.508Z,30
2022-08-18T08:50:00.339Z,23.9
2022-08-18T08:51:52.705Z,19.3
2022-08-18T08:53:50.123Z,21.7
2022-08-18T08:55:52.842Z,27
2022-08-18T08:57:53.208Z,30.7
2022-08-18T08:59:49.986Z,21.5
2022-08-18T09:01:58.151Z,14.5
2022-08-18T09:03:56.999Z,18.8
2022-08-18T09:06:02.412Z,26.6
2022-08-18T09:08:14.692Z,94.8
2022-08-18T09:10:08.567Z,15.3
2022-08-18T09:12:07.094Z,28.9
2022-08-18T09:14:08.776Z,25.7
2022-08-18T09:16:11.044Z,18
2022-08-18T09:18:15.490Z,24.2
2022-08-18T09:20:07.979Z,25.3
2022-08-18T09:21:59.213Z,19.7
2022-08-18T09:24:07.510Z,21.3
2022-08-18T09:25:57.591Z,10.1
2022-08-18T09:28:10.835Z,18.7
2022-08-18T09:30:00.225Z,21
2022-08-18T09:32:26.179Z,15.6
2022-08-18T09:34:23.177Z,23.3
2022-08-18T09:36:10.357Z,14.5
2022-08-18T09:38:07.447Z,14.7
2022-08-18T09:40:12.982Z,16.3
2022-08-18T09:42:05.235Z,11.2
2022-08-18T09:44:03.193Z,13.4
2022-08-18T09:46:03.646Z,18.6
2022-08-18T09:48:28.314Z,54.7
2022-08-18T09:50:32.878Z,18.6
2022-08-18T09:52:32.333Z,18.8
2022-08-18T09:54:13.144Z,20
2022-08-18T09:56:05.593Z,21.3
2022-08-18T09:58:19.250Z,32
2022-08-18T10:00:29.212Z,16.2
2022-08-18T10:02:17.325Z,14
2022-08-18T10:04:35.485Z,15.4
2022-08-18T10:06:17.769Z,12.3
2022-08-18T10:08:36.573Z,16.5
2022-08-18T10:11:01.429Z,16.5
2022-08-18T10:12:20.643Z,20.6
2022-08-18T10:14:31.409Z,18.7
2022-08-18T10:16:18.789Z,25.4
2022-08-18T10:18:40.021Z,33.8
2022-08-18T10:20:26.543Z,21.2
2022-08-18T10:22:11.722Z,19.5
2022-08-18T10:24:36.346Z,13.6
2022-08-18T10:26:42.153Z,19.5
2022-08-18T10:28:46.456Z,16.4
2022-08-18T10:30:56.309Z,31.4
2022-08-18T10:32:41.803Z,36
2022-08-18T10:34:37.490Z,39.7
2022-08-18T10:36:36.241Z,45.9
2022-08-18T10:38:22.697Z,31
2022-08-18T10:40:21.580Z,18.1
2022-08-18T10:42:23.786Z,10
2022-08-18T10:44:29.282Z,37.8
2022-08-18T10:46:25.674Z,21
2022-08-18T10:48:24.370Z,16.3
2022-08-18T10:50:21.997Z,15.4
2022-08-18T10:52:36.408Z,16.7
2022-08-18T10:56:31.176Z,14.1
2022-08-18T10:58:38.604Z,23.4
2022-08-18T11:00:26.830Z,12.4
2022-08-18T11:02:46.139Z,14.3
2022-08-18T11:04:34.172Z,13.4
2022-08-18T11:06:24.718Z,33.6
2022-08-18T11:08:24.577Z,21.5
2022-08-18T11:10:58.266Z,16.2
2022-08-18T11:12:51.461Z,25.8
2022-08-18T11:14:45.233Z,27.5
2022-08-18T11:16:41.543Z,19.8
2022-08-18T11:18:36.404Z,19.3
2022-08-18T11:20:30.713Z,10.8
2022-08-18T11:22:34.146Z,18.7
2022-08-18T11:24:31.097Z,43.4
2022-08-18T11:26:30.349Z,33.1
2022-08-18T11:28:31.752Z,38.7
2022-08-18T11:30:35.201Z,14.6
2022-08-18T11:32:34.733Z,17.3
2022-08-18T11:34:37.831Z,18
2022-08-18T11:36:32.594Z,16.5
2022-08-18T11:38:33.244Z,15.6
2022-08-18T11:41:09.575Z,17.1
2022-08-18T11:42:38.804Z,18.1
2022-08-18T11:44:37.798Z,28.2
2022-08-18T11:46:37.996Z,24.4
2022-08-18T11:50:54.585Z,17.6
2022-08-18T11:52:53.444Z,16.5
2022-08-18T11:56:38.795Z,18.6
2022-08-18T11:58:41.107Z,16.2
2022-08-18T12:00:57.288Z,16.3
2022-08-18T12:02:40.229Z,18.4
2022-08-18T12:04:41.872Z,29
2022-08-18T12:06:54.160Z,23
2022-08-18T12:10:41.974Z,23.9
2022-08-18T12:12:47.214Z,13
2022-08-18T12:14:58.909Z,15.6
2022-08-18T12:16:46.430Z,21.3
2022-08-18T12:18:44.370Z,14.4
2022-08-18T12:20:44.710Z,16.6
2022-08-18T12:22:45.868Z,13.5
2022-08-18T12:24:48.484Z,10.9
2022-08-18T12:26:47.409Z,12.4
2022-08-18T12:28:47.024Z,12.9
2022-08-18T12:30:47.568Z,18
2022-08-18T12:32:50.754Z,20.4
2022-08-18T12:34:49.561Z,25.3
2022-08-18T12:36:51.080Z,13.7
2022-08-18T12:38:52.134Z,16.1
2022-08-18T12:40:50.389Z,19
2022-08-18T12:42:51.248Z,47.9
2022-08-18T12:44:52.095Z,35.6
2022-08-18T12:46:52.217Z,29.3
2022-08-18T12:48:52.893Z,8.6
2022-08-18T12:50:55.835Z,10.6
2022-08-18T12:52:54.155Z,14
2022-08-18T12:54:55.216Z,12.4
2022-08-18T12:56:57.046Z,24.4
2022-08-18T12:58:57.356Z,12
2022-08-18T13:00:56.658Z,29.9
2022-08-18T13:02:57.419Z,17.9
2022-08-18T13:04:57.182Z,12
2022-08-18T13:07:00.677Z,10.1
2022-08-18T13:08:58.362Z,23.5
2022-08-18T13:10:58.902Z,21.1
2022-08-18T13:12:59.508Z,18.5
2022-08-18T13:15:00.073Z,13
2022-08-18T13:17:01.119Z,18.6
2022-08-18T13:19:01.916Z,17
2022-08-18T13:21:03.042Z,14
2022-08-18T13:23:02.338Z,18.4
2022-08-18T13:25:05.394Z,14.4
2022-08-18T13:27:04.115Z,18.5
2022-08-18T13:29:05.516Z,17.5
2022-08-18T13:31:05.433Z,15.7
2022-08-18T13:33:34.632Z,14.5
2022-08-18T13:35:09.097Z,19.9
2022-08-18T13:37:06.612Z,19.6
2022-08-18T13:39:06.939Z,16.9
2022-08-18T13:41:08.111Z,15
2022-08-18T13:43:09.442Z,17.4
2022-08-18T13:45:25.202Z,10.1
2022-08-18T13:47:09.214Z,14.7
2022-08-18T13:49:09.760Z,11.4
2022-08-18T13:51:16.321Z,23
2022-08-18T13:53:14.652Z,13.3
2022-08-18T13:55:16.514Z,19.2
2022-08-18T13:57:12.199Z,17.6
2022-08-18T13:59:12.682Z,14.8
2022-08-18T14:01:42.549Z,21.9
2022-08-18T14:03:13.699Z,26.9
2022-08-18T14:05:14.415Z,23.7
2022-08-18T14:07:18.808Z,19.2
2022-08-18T14:09:19.555Z,25.6
2022-08-18T14:11:16.948Z,33.3
2022-08-18T14:13:20.900Z,32.4
2022-08-18T14:15:17.091Z,14.4
2022-08-18T14:17:17.756Z,17
2022-08-18T14:19:18.208Z,16.3
2022-08-18T14:21:23.003Z,28.1
2022-08-18T14:23:21.499Z,34.4
2022-08-18T14:25:22.318Z,40.7
2022-08-18T14:27:26.401Z,26
2022-08-18T14:29:45.556Z,20.9
2022-08-18T14:31:22.905Z,21.2
2022-08-18T14:33:34.046Z,17.1
2022-08-18T14:36:03.741Z,26.3
2022-08-18T14:37:23.498Z,22.1
2022-08-18T14:39:24.000Z,13.1
2022-08-18T14:41:25.614Z,12.3
2022-08-18T14:43:25.178Z,14.5
2022-08-18T14:45:31.753Z,14
2022-08-18T14:47:28.843Z,12.5
2022-08-18T14:49:28.088Z,10.7
2022-08-18T14:51:27.438Z,12
2022-08-18T14:53:31.256Z,18.1
2022-08-18T14:55:28.224Z,13.5
2022-08-18T14:57:28.674Z,18.7
2022-08-18T14:59:29.695Z,17.9
2022-08-18T15:01:34.879Z,14.6
2022-08-18T15:03:31.552Z,16
2022-08-18T15:05:31.176Z,18.1
2022-08-18T15:07:32.808Z,16.3
2022-08-18T15:09:31.990Z,16.1
2022-08-18T15:11:32.530Z,24.1
2022-08-18T15:13:33.150Z,14.6
2022-08-18T15:15:42.365Z,18.6
2022-08-18T15:17:37.919Z,18.3
2022-08-18T15:20:00.022Z,19.5
2022-08-18T15:21:39.002Z,21.3
2022-08-18T15:23:35.945Z,17.8
2022-08-18T15:25:36.524Z,19.6
2022-08-18T15:27:42.450Z,18.3
2022-08-18T15:29:41.572Z,13.7
2022-08-18T15:31:57.926Z,20.1
2022-08-18T15:33:38.889Z,24.1
2022-08-18T15:35:43.858Z,18.2
2022-08-18T15:37:39.711Z,19
2022-08-18T15:39:40.761Z,20.1
2022-08-18T15:41:44.517Z,13.1
2022-08-18T15:43:46.476Z,16.7
2022-08-18T15:45:43.479Z,36.6
2022-08-18T15:47:42.829Z,28.4
2022-08-18T15:49:42.945Z,29.7
2022-08-18T15:51:45.229Z,26.2
2022-08-18T15:53:44.623Z,20.6
2022-08-18T15:55:45.001Z,21.9
2022-08-18T15:57:46.591Z,20.7
2022-08-18T15:59:45.600Z,22.1
2022-08-18T16:01:49.860Z,16.9
2022-08-18T16:03:48.755Z,19.4
2022-08-18T16:05:49.170Z,21.8
2022-08-18T16:07:47.852Z,25.2
2022-08-18T16:09:48.271Z,35.3
2022-08-18T16:11:48.788Z,31.3
2022-08-18T16:13:50.347Z,28.2
2022-08-18T16:15:50.068Z,34
2022-08-18T16:17:52.762Z,36.9
2022-08-18T16:19:50.956Z,29.5
2022-08-18T16:21:53.652Z,24.7
2022-08-18T16:23:52.904Z,24
2022-08-18T16:25:59.273Z,20.6
2022-08-18T16:27:54.052Z,28.9
2022-08-18T16:29:53.751Z,27.1
2022-08-18T16:31:54.296Z,23.2
2022-08-18T16:33:56.117Z,21.7
2022-08-18T16:35:55.078Z,30.3
2022-08-18T16:37:55.651Z,25.4
2022-08-18T16:39:56.704Z,32.9
2022-08-18T16:41:56.631Z,28.8
2022-08-18T16:43:57.330Z,29
2022-08-18T16:45:57.649Z,21.3
2022-08-18T16:47:58.207Z,25.5
2022-08-18T16:49:59.101Z,28.6
2022-08-18T16:52:00.078Z,26.4
2022-08-18T16:53:59.948Z,27
2022-08-18T16:56:00.170Z,27.8
2022-08-18T16:58:00.679Z,26.1
2022-08-18T17:00:04.454Z,27.8
2022-08-18T17:02:01.809Z,29.3
2022-08-18T17:04:02.274Z,36.7
2022-08-18T17:06:05.288Z,23.9
2022-08-18T17:08:03.362Z,25.7
2022-08-18T17:10:05.280Z,27.9
2022-08-18T17:12:04.462Z,34.7
2022-08-18T17:14:06.440Z,25.8
2022-08-18T17:16:05.670Z,22.2
2022-08-18T17:18:05.735Z,25.5
2022-08-18T17:20:11.287Z,19.9
2022-08-18T17:22:06.548Z,28.2
2022-08-18T17:24:09.212Z,22.4
2022-08-18T17:26:12.099Z,26.8
2022-08-18T17:28:10.024Z,21.3
2022-08-18T17:30:13.623Z,21.5
2022-08-18T17:32:17.296Z,24.7
2022-08-18T17:34:13.367Z,22.3
2022-08-18T17:36:18.581Z,25.5
2022-08-18T17:38:31.565Z,25.2
2022-08-18T17:40:17.521Z,23.5
2022-08-18T17:42:11.176Z,23.2
2022-08-18T17:44:11.693Z,25.1
2022-08-18T17:46:18.056Z,25.3
2022-08-18T17:48:17.150Z,21.5
2022-08-18T17:50:27.146Z,20.4
2022-08-18T17:52:14.808Z,30.4
2022-08-18T17:54:20.033Z,27.8
2022-08-18T17:56:19.249Z,30.2
2022-08-18T17:58:20.347Z,29.7
2022-08-18T18:00:17.740Z,27.4
2022-08-18T18:02:29.875Z,30.3
2022-08-18T18:04:16.256Z,25.7
2022-08-18T18:06:26.146Z,27.5
2022-08-18T18:08:17.226Z,30.8
2022-08-18T18:10:25.805Z,27.2
2022-08-18T18:12:20.473Z,24.6
2022-08-18T18:14:25.353Z,26.2
2022-08-18T18:16:23.912Z,28
2022-08-18T18:18:25.171Z,29.9
2022-08-18T18:20:32.849Z,30
2022-08-18T18:22:22.717Z,20.9
2022-08-18T18:24:29.718Z,32.2
2022-08-18T18:26:25.604Z,22.9
2022-08-18T18:28:26.425Z,21.9
2022-08-18T18:30:27.919Z,25.2
2022-08-18T18:32:25.913Z,19.4
2022-08-18T18:34:28.911Z,20.5
2022-08-18T18:36:32.948Z,23.9
2022-08-18T18:38:26.909Z,23.3
2022-08-18T18:40:35.086Z,25.9
2022-08-18T18:42:27.689Z,26.2
2022-08-18T18:44:27.651Z,21
2022-08-18T18:46:32.771Z,24.9
2022-08-18T18:48:51.179Z,23.8
2022-08-18T18:50:34.641Z,19.2
2022-08-18T18:52:37.094Z,17.3
2022-08-18T18:54:45.571Z,17.7
2022-08-18T18:56:34.372Z,17.7
2022-08-18T18:58:39.508Z,17.7
2022-08-18T19:00:36.105Z,23.3
2022-08-18T19:02:38.347Z,18.3
2022-08-18T19:04:35.811Z,22.7
2022-08-18T19:06:39.348Z,18.8
2022-08-18T19:08:40.957Z,19.5
2022-08-18T19:10:35.861Z,14.8
2022-08-18T19:12:41.849Z,17.3
2022-08-18T19:14:34.880Z,19
2022-08-18T19:16:37.503Z,17.7
2022-08-18T19:18:37.523Z,15.3
2022-08-18T19:20:36.251Z,20.4
2022-08-18T19:22:41.143Z,17.9
2022-08-18T19:24:40.243Z,15.2
2022-08-18T19:26:44.033Z,16.7
2022-08-18T19:29:12.771Z,13.9
2022-08-18T19:30:39.488Z,18
2022-08-18T19:32:40.209Z,15.6
2022-08-18T19:34:51.638Z,21.2
2022-08-18T19:36:41.710Z,13
2022-08-18T19:38:46.633Z,14.5
2022-08-18T19:40:45.801Z,23
2022-08-18T19:42:43.303Z,17.3
2022-08-18T19:44:55.402Z,17.1
2022-08-18T19:46:43.242Z,18.5
2022-08-18T19:48:45.559Z,20.1
2022-08-18T19:50:45.354Z,20.8
2022-08-18T19:52:56.517Z,20.7
2022-08-18T19:54:54.836Z,27.7
2022-08-18T19:57:03.205Z,16.6
2022-08-18T19:59:15.191Z,17
2022-08-18T20:00:51.216Z,14.5
2022-08-18T20:03:01.409Z,15.5
2022-08-18T20:04:57.049Z,14.2
2022-08-18T20:06:58.596Z,11.5
2022-08-18T20:09:06.858Z,12.9
2022-08-18T20:10:58.170Z,15.8
2022-08-18T20:13:03.889Z,16.8
2022-08-18T20:14:58.768Z,17.8
2022-08-18T20:17:13.186Z,15.9
2022-08-18T20:18:46.513Z,14.9
2022-08-18T20:21:13.910Z,19.8
2022-08-18T20:22:46.720Z,16.1
2022-08-18T20:24:51.081Z,16.8
2022-08-18T20:26:48.738Z,14.2
2022-08-18T20:28:45.855Z,13.2
2022-08-18T20:30:56.898Z,14.5
2022-08-18T20:33:07.608Z,14.9
2022-08-18T20:34:50.498Z,15
2022-08-18T20:36:49.022Z,19.4
2022-08-18T20:38:49.456Z,18.6
2022-08-18T20:40:50.043Z,15.1
2022-08-18T20:42:55.892Z,10.4
2022-08-18T20:44:57.891Z,11.4
2022-08-18T20:47:02.338Z,13.3
2022-08-18T20:49:01.361Z,12.1
2022-08-18T20:50:58.559Z,12.1
2022-08-18T20:53:00.726Z,12.5
2022-08-18T20:54:59.179Z,8.7
2022-08-18T20:56:56.931Z,12.1
2022-08-18T20:58:55.721Z,14.9
2022-08-18T21:00:55.827Z,16.2
2022-08-18T21:02:55.067Z,13
2022-08-18T21:04:55.791Z,15.8
2022-08-18T21:06:53.173Z,9.7
2022-08-18T21:08:53.840Z,10.4
2022-08-18T21:10:57.091Z,10.6
2022-08-18T21:12:56.389Z,11.6
2022-08-18T21:14:57.197Z,14.6
2022-08-18T21:16:55.066Z,9.6
2022-08-18T21:18:58.088Z,12.5
2022-08-18T21:20:57.869Z,10.5
2022-08-18T21:23:06.715Z,11.1
2022-08-18T21:24:57.580Z,14.6
2022-08-18T21:27:01.673Z,13
2022-08-18T21:29:04.040Z,9.9
2022-08-18T21:31:41.927Z,9.4
2022-08-18T21:32:57.917Z,9.9
2022-08-18T21:35:00.115Z,8.9
2022-08-18T21:37:01.696Z,10.1
2022-08-18T21:39:06.693Z,14.8
2022-08-18T21:41:01.516Z,11.2
2022-08-18T21:43:00.159Z,16.9
2022-08-18T21:45:00.941Z,11.9
2022-08-18T21:47:06.767Z,9.3
2022-08-18T21:49:03.088Z,7.9
2022-08-18T21:51:01.223Z,10.2
2022-08-18T21:53:13.646Z,16.2
2022-08-18T21:55:05.778Z,13.1
2022-08-18T21:57:18.610Z,11.1
2022-08-18T21:59:07.455Z,8.6
2022-08-18T22:01:12.287Z,10.3
2022-08-18T22:03:17.370Z,9
2022-08-18T22:05:04.450Z,8.4
2022-08-18T22:07:16.954Z,8.6
2022-08-18T22:09:15.761Z,11.3
2022-08-18T22:11:16.763Z,11.7
2022-08-18T22:13:05.255Z,9.3
2022-08-18T22:15:08.350Z,10.8
2022-08-18T22:17:26.535Z,10.9
2022-08-18T22:19:10.806Z,8.2
2022-08-18T22:21:30.069Z,11.3
2022-08-18T22:23:20.735Z,14
2022-08-18T22:25:10.828Z,11
2022-08-18T22:27:10.880Z,7
2022-08-18T22:29:23.907Z,8
2022-08-18T22:31:08.367Z,11.4
2022-08-18T22:33:08.657Z,7.2
2022-08-18T22:35:09.036Z,7.8
2022-08-18T22:37:12.138Z,10.2
2022-08-18T22:39:13.028Z,14.8
2022-08-18T22:41:10.615Z,10.3
2022-08-18T22:43:10.519Z,8.7
2022-08-18T22:45:12.957Z,6.8
2022-08-18T22:47:11.889Z,8.5
2022-08-18T22:49:11.517Z,12
2022-08-18T22:51:12.045Z,13.7
2022-08-18T22:53:13.036Z,10
2022-08-18T22:55:15.212Z,8
2022-08-18T22:57:12.891Z,11.9
2022-08-18T22:59:19.572Z,10.7
2022-08-18T23:01:13.564Z,9.8
2022-08-18T23:03:14.209Z,9.3
2022-08-18T23:05:14.234Z,9.9
2022-08-18T23:07:14.488Z,7.9
2022-08-18T23:09:14.919Z,9.3
2022-08-18T23:11:15.208Z,13.8
2022-08-18T23:13:15.723Z,12.4
2022-08-18T23:15:17.472Z,7.7
2022-08-18T23:17:16.831Z,9.8
2022-08-18T23:19:18.684Z,6.6
2022-08-18T23:21:34.410Z,9.4
2022-08-18T23:23:19.662Z,13.4
2022-08-18T23:25:17.651Z,8.8
2022-08-18T23:27:18.054Z,12.2
2022-08-18T23:29:19.988Z,7.8
2022-08-18T23:31:18.819Z,8.6
2022-08-18T23:33:19.081Z,10.8
2022-08-18T23:35:19.477Z,10.7
2022-08-18T23:37:19.742Z,10.9
2022-08-18T23:39:20.240Z,8.3
2022-08-18T23:41:20.511Z,12.7
2022-08-18T23:43:20.681Z,11.7
2022-08-18T23:45:21.271Z,9.4
2022-08-18T23:47:21.390Z,8.1
2022-08-18T23:49:21.804Z,11
2022-08-18T23:51:24.661Z,8.7
2022-08-18T23:53:22.448Z,8.8
2022-08-18T23:55:23.109Z,7.1
2022-08-18T23:57:23.181Z,9.6
2022-08-18T23:59:25.149Z,9.3
